Time;durP1;ratioP1;P1;durP2;ratioP2;P2;SDS_P1;SDS_P2;PMS_P1;PMS_P2;Temp;Humidity;BMP_temperature;BMP_pressure;BME280_temperature;BME280_humidity;BME280_pressure;Samples;Min_cycle;Max_cycle;Signal;HPM_P1;HPM_P2
2023/10/04 00:02:06;;;;;;;1999.90;999.90;;;13.50;99.90;;;;;;5105734;28;20995;-72
2023/10/04 00:04:34;;;;;;;1999.90;999.90;;;13.50;99.90;;;;;;5091171;28;20426;-72
2023/10/04 00:07:04;;;;;;;1999.90;999.90;;;13.50;99.90;;;;;;5091836;28;20426;-72
2023/10/04 00:09:31;;;;;;;1999.90;999.90;;;13.50;99.90;;;;;;5096138;28;20432;-72
2023/10/04 00:11:58;;;;;;;1999.90;999.90;;;13.50;99.90;;;;;;5105967;28;20948;-72
2023/10/04 00:14:27;;;;;;;1999.90;999.90;;;13.40;99.90;;;;;;5098231;28;20428;-73
2023/10/04 00:16:54;;;;;;;1999.90;999.90;;;13.50;99.90;;;;;;5094522;28;20484;-73
2023/10/04 00:19:21;;;;;;;1999.90;999.90;;;13.40;99.90;;;;;;5098028;28;20462;-73
2023/10/04 00:21:48;;;;;;;1999.90;999.90;;;13.40;99.90;;;;;;5101878;28;20797;-73
2023/10/04 00:24:14;;;;;;;1999.90;999.90;;;13.40;99.90;;;;;;5109599;28;20423;-72
2023/10/04 00:26:43;;;;;;;1999.90;999.90;;;13.40;99.90;;;;;;5107462;28;20465;-73
2023/10/04 00:29:10;;;;;;;1999.90;999.90;;;13.40;99.90;;;;;;5097430;28;20925;-72
2023/10/04 00:31:38;;;;;;;1999.90;999.90;;;13.40;99.90;;;;;;5095542;28;20842;-73
2023/10/04 00:34:08;;;;;;;1999.90;999.90;;;13.40;99.90;;;;;;5101728;28;20444;-72
2023/10/04 00:36:35;;;;;;;1999.90;999.90;;;13.30;99.90;;;;;;5101342;28;20508;-73
2023/10/04 00:39:02;;;;;;;1999.90;999.90;;;13.30;99.90;;;;;;5101677;28;20527;-72
2023/10/04 00:41:30;;;;;;;1999.90;999.90;;;13.30;99.90;;;;;;5095166;28;20547;-72
2023/10/04 00:44:00;;;;;;;1999.90;999.90;;;13.30;99.90;;;;;;5095059;28;20430;-72
2023/10/04 00:46:29;;;;;;;1999.90;999.90;;;13.30;99.90;;;;;;5106901;28;20450;-72
2023/10/04 00:48:58;;;;;;;1999.90;999.90;;;13.30;99.90;;;;;;5102472;28;20425;-72
2023/10/04 00:51:25;;;;;;;1999.90;999.90;;;13.40;99.90;;;;;;5106585;28;20424;-72
2023/10/04 00:53:52;;;;;;;1999.90;999.90;;;13.40;99.90;;;;;;5094473;28;20869;-73
2023/10/04 00:56:19;;;;;;;1999.90;999.90;;;13.40;99.90;;;;;;5099046;28;20462;-72
2023/10/04 00:58:46;;;;;;;1999.90;999.90;;;13.40;99.90;;;;;;5101653;28;20424;-72
2023/10/04 01:01:14;;;;;;;1999.90;999.90;;;13.50;99.90;;;;;;5100845;28;20780;-72
2023/10/04 01:03:40;;;;;;;1999.90;999.90;;;13.50;99.90;;;;;;5099196;28;20916;-73
2023/10/04 01:06:09;;;;;;;1999.90;999.90;;;13.50;99.90;;;;;;5100453;28;20430;-72
2023/10/04 01:08:37;;;;;;;1999.90;999.90;;;13.50;99.90;;;;;;5093428;28;20422;-72
2023/10/04 01:11:06;;;;;;;1999.90;999.90;;;13.50;99.90;;;;;;5102529;28;20437;-72
2023/10/04 01:13:33;;;;;;;1999.90;999.90;;;13.50;99.90;;;;;;5102695;28;20433;-72
2023/10/04 01:15:59;;;;;;;1999.90;999.90;;;13.50;99.90;;;;;;5098875;28;20430;-72
2023/10/04 01:18:28;;;;;;;1999.90;999.90;;;13.50;99.90;;;;;;5103029;28;20426;-72
2023/10/04 01:20:56;;;;;;;1999.90;999.90;;;13.50;99.90;;;;;;5097264;28;20475;-72
2023/10/04 01:23:24;;;;;;;1999.90;999.90;;;13.50;99.90;;;;;;5104806;28;20535;-72
2023/10/04 01:25:50;;;;;;;1999.90;999.90;;;13.40;99.90;;;;;;5097382;28;20440;-73
2023/10/04 01:28:26;;;;;;;1999.90;999.90;;;13.40;99.90;;;;;;5094849;28;20431;-72
2023/10/04 01:30:54;;;;;;;1999.90;999.90;;;13.40;99.90;;;;;;5099480;28;20501;-72
2023/10/04 01:33:22;;;;;;;1999.90;999.90;;;13.40;99.90;;;;;;5101181;28;20430;-72
2023/10/04 01:35:53;;;;;;;1999.90;999.90;;;13.50;99.90;;;;;;5095032;28;20807;-72
2023/10/04 01:38:24;;;;;;;1999.90;999.90;;;13.50;99.90;;;;;;5105132;28;20503;-73
2023/10/04 01:40:53;;;;;;;1999.90;999.90;;;13.50;99.90;;;;;;5093908;28;21002;-72
2023/10/04 01:43:19;;;;;;;1999.90;999.90;;;13.50;99.90;;;;;;5093879;28;20906;-72
2023/10/04 01:45:50;;;;;;;1999.90;999.90;;;13.50;99.90;;;;;;5094258;28;20479;-72
2023/10/04 01:48:17;;;;;;;1999.90;999.90;;;13.50;99.90;;;;;;5094472;28;20430;-72
2023/10/04 01:50:44;;;;;;;1999.90;999.90;;;13.60;99.90;;;;;;5091749;28;20434;-72
2023/10/04 01:53:11;;;;;;;1999.90;999.90;;;13.50;99.90;;;;;;5097291;28;20841;-72
2023/10/04 01:55:38;;;;;;;1999.90;999.90;;;13.60;99.90;;;;;;5104515;28;20432;-72
2023/10/04 01:58:07;;;;;;;1999.90;999.90;;;13.60;99.90;;;;;;5098952;28;20424;-72
2023/10/04 02:00:34;;;;;;;1999.90;999.90;;;13.60;99.90;;;;;;5104631;28;20479;-72
2023/10/04 02:03:02;;;;;;;1999.90;999.90;;;13.50;99.90;;;;;;5094814;28;20445;-72
2023/10/04 02:05:31;;;;;;;1999.90;999.90;;;13.50;99.90;;;;;;5093182;28;21073;-72
2023/10/04 02:07:58;;;;;;;1999.90;999.90;;;13.50;99.90;;;;;;5089588;28;20483;-72
2023/10/04 02:10:26;;;;;;;1999.90;999.90;;;13.50;99.90;;;;;;5100122;28;20672;-72
2023/10/04 02:12:55;;;;;;;1999.90;999.90;;;13.50;99.90;;;;;;5100598;28;20428;-72
2023/10/04 02:15:23;;;;;;;1999.90;999.90;;;13.50;99.90;;;;;;5092307;28;20426;-73
2023/10/04 02:17:53;;;;;;;1999.90;999.90;;;13.50;99.90;;;;;;5099580;28;20438;-72
2023/10/04 02:20:28;;;;;;;1999.90;999.90;;;13.60;99.90;;;;;;5095021;28;20420;-73
2023/10/04 02:22:56;;;;;;;1999.90;999.90;;;13.60;99.90;;;;;;5109418;28;20428;-72
2023/10/04 02:25:22;;;;;;;1999.90;999.90;;;13.50;99.90;;;;;;5099319;28;20437;-73
2023/10/04 02:27:50;;;;;;;1999.90;999.90;;;13.40;99.90;;;;;;5106051;28;20430;-73
2023/10/04 02:30:21;;;;;;;1999.90;999.90;;;13.30;99.90;;;;;;5093162;28;20457;-72
2023/10/04 02:32:51;;;;;;;1999.90;999.90;;;13.40;99.90;;;;;;5096327;28;20426;-72
2023/10/04 02:35:26;;;;;;;1999.90;999.90;;;13.40;99.90;;;;;;5106351;28;20555;-73
2023/10/04 02:37:58;;;;;;;1999.90;999.90;;;13.40;99.90;;;;;;5108686;28;20922;-72
2023/10/04 02:40:27;;;;;;;1999.90;999.90;;;13.40;99.90;;;;;;5099027;28;20840;-72
2023/10/04 02:42:58;;;;;;;1999.90;999.90;;;13.40;99.90;;;;;;5107516;28;20444;-72
2023/10/04 02:45:26;;;;;;;1999.90;999.90;;;13.40;99.90;;;;;;5107447;28;20430;-72
2023/10/04 02:47:55;;;;;;;1999.90;999.90;;;13.40;99.90;;;;;;5108873;28;20435;-73
2023/10/04 02:50:23;;;;;;;1999.90;999.90;;;13.40;99.90;;;;;;5105287;28;20497;-72
2023/10/04 02:52:51;;;;;;;1999.90;999.90;;;13.40;99.90;;;;;;5102208;28;20428;-72
2023/10/04 02:55:18;;;;;;;1999.90;999.90;;;13.50;99.90;;;;;;5107274;28;20436;-72
2023/10/04 02:57:46;;;;;;;1999.90;999.90;;;13.50;99.90;;;;;;5100813;28;20504;-73
2023/10/04 03:00:19;;;;;;;1999.90;999.90;;;13.50;99.90;;;;;;5105556;28;20425;-73
2023/10/04 03:02:47;;;;;;;1999.90;999.90;;;13.40;99.90;;;;;;5108308;28;20428;-72
2023/10/04 03:05:18;;;;;;;1999.90;999.90;;;13.40;99.90;;;;;;5100297;28;20482;-73
2023/10/04 03:07:46;;;;;;;1999.90;999.90;;;13.40;99.90;;;;;;5099934;28;20789;-72
2023/10/04 03:10:23;;;;;;;1999.90;999.90;;;13.40;99.90;;;;;;5100893;28;20436;-72
2023/10/04 03:12:51;;;;;;;1999.90;999.90;;;13.40;99.90;;;;;;5106202;28;20428;-72
2023/10/04 03:15:21;;;;;;;1999.90;999.90;;;13.50;99.90;;;;;;5100722;28;20520;-72
2023/10/04 03:17:47;;;;;;;1999.90;999.90;;;13.40;99.90;;;;;;5103939;28;20479;-72
2023/10/04 03:20:20;;;;;;;1999.90;999.90;;;13.40;99.90;;;;;;5096983;28;20473;-72
2023/10/04 03:22:47;;;;;;;1999.90;999.90;;;13.40;99.90;;;;;;5097080;28;20428;-72
2023/10/04 03:25:16;;;;;;;1999.90;999.90;;;13.40;99.90;;;;;;5100163;28;20694;-72
2023/10/04 03:27:44;;;;;;;1999.90;999.90;;;13.40;99.90;;;;;;5106159;28;20427;-72
2023/10/04 03:30:14;;;;;;;1999.90;999.90;;;13.30;99.90;;;;;;5107817;28;20420;-72
2023/10/04 03:32:42;;;;;;;1999.90;999.90;;;13.30;99.90;;;;;;5094708;28;20448;-72
2023/10/04 03:35:14;;;;;;;1999.90;999.90;;;13.30;99.90;;;;;;5103751;28;20434;-72
2023/10/04 03:37:54;;;;;;;1999.90;999.90;;;13.40;99.90;;;;;;5099064;28;20421;-72
2023/10/04 03:40:21;;;;;;;1999.90;999.90;;;13.50;99.90;;;;;;5105297;28;20931;-72
2023/10/04 03:42:46;;;;;;;1999.90;999.90;;;13.50;99.90;;;;;;5107663;28;20802;-72
2023/10/04 03:45:17;;;;;;;1999.90;999.90;;;13.50;99.90;;;;;;5091484;28;20437;-73
2023/10/04 03:47:44;;;;;;;1999.90;999.90;;;13.50;99.90;;;;;;5100027;28;20432;-72
2023/10/04 03:50:12;;;;;;;1999.90;999.90;;;13.50;99.90;;;;;;5099790;28;20925;-72
2023/10/04 03:52:39;;;;;;;1999.90;999.90;;;13.50;99.90;;;;;;5110601;28;20511;-72
2023/10/04 03:55:09;;;;;;;1999.90;999.90;;;13.40;99.90;;;;;;5109760;28;20427;-72
2023/10/04 03:57:35;;;;;;;1999.90;999.90;;;13.40;99.90;;;;;;5108838;28;20502;-73
2023/10/04 04:00:13;;;;;;;1999.90;999.90;;;13.50;99.90;;;;;;5097013;28;20468;-72
2023/10/04 04:02:41;;;;;;;1999.90;999.90;;;13.50;99.90;;;;;;5107432;28;20495;-73
2023/10/04 04:05:11;;;;;;;1999.90;999.90;;;13.40;99.90;;;;;;5104751;28;20509;-72
2023/10/04 04:07:38;;;;;;;1999.90;999.90;;;13.40;99.90;;;;;;5109248;28;20427;-72
2023/10/04 04:10:08;;;;;;;1999.90;999.90;;;13.40;99.90;;;;;;5104681;28;20430;-73
2023/10/04 04:12:36;;;;;;;1999.90;999.90;;;13.40;99.90;;;;;;5102876;28;20463;-72
2023/10/04 04:15:08;;;;;;;1999.90;999.90;;;13.40;99.90;;;;;;5100994;28;20453;-72
2023/10/04 04:17:35;;;;;;;1999.90;999.90;;;13.30;99.90;;;;;;5110217;28;20432;-72
2023/10/04 04:20:08;;;;;;;1999.90;999.90;;;13.40;99.90;;;;;;5108436;28;20423;-72
2023/10/04 04:22:35;;;;;;;1999.90;999.90;;;13.50;99.90;;;;;;5109484;28;20464;-72
2023/10/04 04:25:03;;;;;;;1999.90;999.90;;;13.40;99.90;;;;;;5098797;28;20850;-73
2023/10/04 04:27:31;;;;;;;1999.90;999.90;;;13.40;99.90;;;;;;5105557;28;20516;-73
2023/10/04 04:30:03;;;;;;;1999.90;999.90;;;13.40;99.90;;;;;;5106845;28;20932;-72
2023/10/04 04:32:30;;;;;;;1999.90;999.90;;;13.40;99.90;;;;;;5108173;28;20513;-73
2023/10/04 04:34:57;;;;;;;1999.90;999.90;;;13.50;99.90;;;;;;5105531;28;20431;-73
2023/10/04 04:37:26;;;;;;;1999.90;999.90;;;13.50;99.90;;;;;;5102114;27;20529;-72
2023/10/04 04:39:52;;;;;;;1999.90;999.90;;;13.60;99.90;;;;;;5103756;28;20521;-72
2023/10/04 04:42:29;;;;;;;1999.90;999.90;;;13.60;99.90;;;;;;5102338;28;20425;-72
2023/10/04 04:44:58;;;;;;;1999.90;999.90;;;13.50;99.90;;;;;;5106933;28;20529;-72
2023/10/04 04:47:25;;;;;;;1999.90;999.90;;;13.50;99.90;;;;;;5106420;28;20906;-72
2023/10/04 04:49:52;;;;;;;1999.90;999.90;;;13.40;99.90;;;;;;5106154;28;20549;-72
2023/10/04 04:52:20;;;;;;;1999.90;999.90;;;13.40;99.90;;;;;;5103517;28;20425;-72
2023/10/04 04:54:46;;;;;;;1999.90;999.90;;;13.40;99.90;;;;;;5101264;28;20428;-72
2023/10/04 04:57:13;;;;;;;1999.90;999.90;;;13.70;99.90;;;;;;5102817;28;20455;-73
2023/10/04 04:59:42;;;;;;;1999.90;999.90;;;13.40;99.90;;;;;;5103937;28;20427;-72
2023/10/04 05:02:11;;;;;;;1999.90;999.90;;;13.30;99.90;;;;;;5102523;28;20866;-72
2023/10/04 05:04:37;;;;;;;1999.90;999.90;;;13.30;99.90;;;;;;5105579;28;20430;-71
2023/10/04 05:07:06;;;;;;;1999.90;999.90;;;13.50;99.90;;;;;;5097363;28;20429;-72
2023/10/04 05:09:34;;;;;;;1999.90;999.90;;;13.40;99.90;;;;;;5101918;28;20428;-72
2023/10/04 05:12:01;;;;;;;1999.90;999.90;;;13.50;99.90;;;;;;5103617;28;20428;-72
2023/10/04 05:14:27;;;;;;;1999.90;999.90;;;13.50;99.90;;;;;;5108719;28;20521;-72
2023/10/04 05:16:54;;;;;;;1999.90;999.90;;;13.40;99.90;;;;;;5098208;28;20439;-73
2023/10/04 05:19:22;;;;;;;1999.90;999.90;;;13.50;99.90;;;;;;5102957;28;20429;-72
2023/10/04 05:21:48;;;;;;;1999.90;999.90;;;13.50;99.90;;;;;;5100534;28;20428;-72
2023/10/04 05:24:15;;;;;;;1999.90;999.90;;;13.50;99.90;;;;;;5100888;28;20424;-72
2023/10/04 05:26:42;;;;;;;1999.90;999.90;;;13.40;99.90;;;;;;5108946;28;20443;-72
2023/10/04 05:29:09;;;;;;;1999.90;999.90;;;13.50;99.90;;;;;;5108547;28;20432;-72
2023/10/04 05:31:37;;;;;;;1999.90;999.90;;;13.40;99.90;;;;;;5100665;28;20418;-72
2023/10/04 05:34:03;;;;;;;1999.90;999.90;;;13.40;99.90;;;;;;5099560;28;20452;-73
2023/10/04 05:36:31;;;;;;;1999.90;999.90;;;13.50;99.90;;;;;;5101955;28;20439;-72
2023/10/04 05:39:01;;;;;;;1999.90;999.90;;;13.60;99.90;;;;;;5107019;28;20432;-72
2023/10/04 05:41:31;;;;;;;1999.90;999.90;;;13.50;99.90;;;;;;5107498;28;20473;-73
2023/10/04 05:43:58;;;;;;;1999.90;999.90;;;13.40;99.90;;;;;;5107268;28;20424;-72
2023/10/04 05:46:24;;;;;;;1999.90;999.90;;;13.50;99.90;;;;;;5099600;27;20919;-72
2023/10/04 05:48:51;;;;;;;1999.90;999.90;;;13.60;99.90;;;;;;5099466;28;20975;-72
2023/10/04 05:51:24;;;;;;;1999.90;999.90;;;14.00;99.90;;;;;;5104653;28;20471;-72
2023/10/04 05:53:52;;;;;;;1999.90;999.90;;;13.50;99.90;;;;;;5105800;28;20913;-72
2023/10/04 05:56:21;;;;;;;1999.90;999.90;;;13.70;99.90;;;;;;5100957;28;20427;-72
2023/10/04 05:58:48;;;;;;;1999.90;999.90;;;13.70;99.90;;;;;;5099089;28;20802;-73
2023/10/04 06:01:17;;;;;;;1999.90;999.90;;;13.70;99.90;;;;;;5099810;28;20426;-72
2023/10/04 06:03:44;;;;;;;1999.90;999.90;;;13.60;99.90;;;;;;5098836;28;20469;-72
2023/10/04 06:06:11;;;;;;;1999.90;999.90;;;13.60;99.90;;;;;;5108628;28;20432;-72
2023/10/04 06:08:38;;;;;;;1999.90;999.90;;;13.60;99.90;;;;;;5100877;28;20435;-72
2023/10/04 06:11:06;;;;;;;1999.90;999.90;;;13.60;99.90;;;;;;5101366;28;20439;-73
2023/10/04 06:13:32;;;;;;;1999.90;999.90;;;13.70;99.90;;;;;;5105616;28;21238;-73
2023/10/04 06:15:59;;;;;;;1999.90;999.90;;;13.80;99.90;;;;;;5107769;28;20428;-73
2023/10/04 06:18:28;;;;;;;1999.90;999.90;;;13.70;99.90;;;;;;5101548;28;20565;-73
2023/10/04 06:20:55;;;;;;;1999.90;999.90;;;13.70;99.90;;;;;;5097599;28;20563;-72
2023/10/04 06:23:22;;;;;;;1999.90;999.90;;;13.70;99.90;;;;;;5103875;28;20428;-72
2023/10/04 06:25:50;;;;;;;1999.90;999.90;;;13.70;99.90;;;;;;5104027;28;20453;-72
2023/10/04 06:28:19;;;;;;;1999.90;999.90;;;13.80;99.90;;;;;;5107225;28;20455;-72
2023/10/04 06:30:49;;;;;;;1999.90;999.90;;;13.90;99.90;;;;;;5100074;28;20420;-72
2023/10/04 06:33:16;;;;;;;1999.90;999.90;;;13.90;99.90;;;;;;5103053;28;20996;-73
2023/10/04 06:35:43;;;;;;;1999.90;999.90;;;13.90;99.90;;;;;;5106434;28;20454;-72
2023/10/04 06:38:11;;;;;;;1999.90;999.90;;;14.00;99.90;;;;;;5102339;28;20455;-73
2023/10/04 06:40:38;;;;;;;1999.90;999.90;;;13.90;99.90;;;;;;5103499;28;20477;-72
2023/10/04 06:43:07;;;;;;;1999.90;999.90;;;13.90;99.90;;;;;;5101727;28;20410;-72
2023/10/04 06:45:37;;;;;;;1999.90;999.90;;;13.80;99.90;;;;;;5096663;28;20540;-72
2023/10/04 06:48:05;;;;;;;1999.90;999.90;;;14.00;99.90;;;;;;5105866;28;20430;-72
2023/10/04 06:50:35;;;;;;;1999.90;999.90;;;14.20;99.90;;;;;;5107954;28;20405;-72
2023/10/04 06:53:03;;;;;;;1999.90;999.90;;;14.60;99.90;;;;;;5109221;28;20820;-71
2023/10/04 06:55:31;;;;;;;1999.90;999.90;;;14.00;99.90;;;;;;5097913;28;21345;-72
2023/10/04 06:57:58;;;;;;;1999.90;999.90;;;14.10;99.90;;;;;;5100630;28;20429;-71
2023/10/04 07:00:30;;;;;;;1999.90;999.90;;;14.00;99.90;;;;;;5102514;28;20427;-72
2023/10/04 07:02:59;;;;;;;1999.90;999.90;;;14.00;99.90;;;;;;5101944;28;20438;-72
2023/10/04 07:05:29;;;;;;;1999.90;999.90;;;14.10;99.90;;;;;;5105367;28;20412;-72
2023/10/04 07:07:57;;;;;;;1999.90;999.90;;;14.20;99.90;;;;;;5100273;28;20431;-72
2023/10/04 07:10:26;;;;;;;1999.90;999.90;;;13.90;99.90;;;;;;5106841;28;20842;-72
2023/10/04 07:12:54;;;;;;;1999.90;999.90;;;14.00;99.90;;;;;;5095693;28;20429;-72
2023/10/04 07:15:22;;;;;;;1999.90;999.90;;;14.10;99.90;;;;;;5101763;28;20433;-72
2023/10/04 07:17:49;;;;;;;1999.90;999.90;;;14.30;99.90;;;;;;5096556;28;20434;-72
2023/10/04 07:20:18;;;;;;;1999.90;999.90;;;14.50;99.90;;;;;;5106173;28;20424;-72
2023/10/04 07:22:47;;;;;;;1999.90;999.90;;;14.70;99.90;;;;;;5100816;28;20429;-72
2023/10/04 07:25:15;;;;;;;1999.90;999.90;;;14.90;99.90;;;;;;5100901;28;20437;-72
2023/10/04 07:27:43;;;;;;;1999.90;999.90;;;15.30;99.90;;;;;;5099229;28;20428;-71
2023/10/04 07:30:12;;;;;;;1999.90;999.90;;;15.20;99.90;;;;;;5099640;28;20928;-72
2023/10/04 07:32:41;;;;;;;1999.90;999.90;;;15.20;99.90;;;;;;5103047;28;20428;-72
2023/10/04 07:35:09;;;;;;;1999.90;999.90;;;15.30;99.90;;;;;;5097717;28;20426;-72
2023/10/04 07:37:37;;;;;;;1999.90;999.90;;;15.40;99.90;;;;;;5101743;28;20456;-73
2023/10/04 07:40:09;;;;;;;1999.90;999.90;;;15.70;99.90;;;;;;5106367;28;20424;-73
2023/10/04 07:42:36;;;;;;;1999.90;999.90;;;15.70;99.90;;;;;;5104821;28;20519;-72
2023/10/04 07:45:03;;;;;;;1999.90;999.90;;;15.90;99.90;;;;;;5097670;28;20431;-72
2023/10/04 07:47:31;;;;;;;1999.90;999.90;;;15.90;99.90;;;;;;5103476;28;20453;-72
2023/10/04 07:49:58;;;;;;;1999.90;999.90;;;16.00;99.90;;;;;;5104180;28;20424;-73
2023/10/04 07:52:24;;;;;;;1999.90;999.90;;;16.10;99.90;;;;;;5108672;28;20404;-72
2023/10/04 07:54:53;;;;;;;1999.90;999.90;;;16.00;99.90;;;;;;5097414;28;20854;-73
2023/10/04 07:57:20;;;;;;;1999.90;999.90;;;16.10;99.90;;;;;;5097862;28;20413;-72
2023/10/04 07:59:46;;;;;;;1999.90;999.90;;;16.00;99.90;;;;;;5107968;28;20408;-72
2023/10/04 08:02:13;;;;;;;1999.90;999.90;;;16.00;99.90;;;;;;5100903;28;20432;-73
2023/10/04 08:04:40;;;;;;;1999.90;999.90;;;16.10;99.90;;;;;;5099985;28;20893;-72
2023/10/04 08:07:12;;;;;;;1999.90;999.90;;;15.80;99.90;;;;;;5099576;28;20428;-72
2023/10/04 08:09:38;;;;;;;1999.90;999.90;;;16.00;99.90;;;;;;5091551;28;20424;-72
2023/10/04 08:12:07;;;;;;;1999.90;999.90;;;16.00;99.90;;;;;;5100243;28;20415;-72
2023/10/04 08:14:34;;;;;;;1999.90;999.90;;;15.90;99.90;;;;;;5088912;28;20432;-72
2023/10/04 08:17:01;;;;;;;1999.90;999.90;;;16.10;99.90;;;;;;5089315;28;20910;-73
2023/10/04 08:19:27;;;;;;;1999.90;999.90;;;16.40;99.90;;;;;;5101745;28;20447;-72
2023/10/04 08:21:54;;;;;;;1999.90;999.90;;;16.20;99.90;;;;;;5099303;28;20523;-72
2023/10/04 08:24:21;;;;;;;1999.90;999.90;;;16.20;99.90;;;;;;5104132;28;20477;-72
2023/10/04 08:26:48;;;;;;;1999.90;999.90;;;16.20;99.90;;;;;;5089883;28;20413;-72
2023/10/04 08:29:16;;;;;;;1999.90;999.90;;;16.30;99.90;;;;;;5098144;28;20428;-72
2023/10/04 08:31:43;;;;;;;1999.90;999.90;;;16.40;99.90;;;;;;5101048;28;20426;-72
2023/10/04 08:34:10;;;;;;;1999.90;999.90;;;16.50;99.90;;;;;;5105768;28;20439;-72
2023/10/04 08:36:39;;;;;;;1999.90;999.90;;;16.70;99.90;;;;;;5100906;28;20412;-72
2023/10/04 08:39:10;;;;;;;1999.90;999.90;;;17.00;99.90;;;;;;5113616;28;20412;-72
2023/10/04 08:41:37;;;;;;;1999.90;999.90;;;16.80;99.90;;;;;;5108248;28;20479;-72
2023/10/04 08:44:05;;;;;;;1999.90;999.90;;;16.90;99.90;;;;;;5112989;28;20412;-72
2023/10/04 08:46:37;;;;;;;1999.90;999.90;;;16.80;99.90;;;;;;5113395;28;20412;-72
2023/10/04 08:49:04;;;;;;;1999.90;999.90;;;16.90;99.90;;;;;;5113580;28;20416;-72
2023/10/04 08:51:39;;;;;;;1999.90;999.90;;;17.10;99.90;;;;;;5105978;28;20420;-72
2023/10/04 08:54:13;;;;;;;1999.90;999.90;;;17.30;99.90;;;;;;5111736;28;20906;-72
2023/10/04 08:56:49;;;;;;;1999.90;999.90;;;17.30;99.90;;;;;;5103693;28;20404;-72
2023/10/04 08:59:18;;;;;;;1999.90;999.90;;;17.40;99.90;;;;;;5105511;28;20906;-72
2023/10/04 09:01:48;;;;;;;1999.90;999.90;;;17.50;99.90;;;;;;5113556;28;20443;-72
2023/10/04 09:04:15;;;;;;;1999.90;999.90;;;17.50;99.90;;;;;;5106308;28;20432;-72
2023/10/04 09:06:42;;;;;;;1999.90;999.90;;;17.50;99.90;;;;;;5100473;28;20410;-72
2023/10/04 09:09:11;;;;;;;1999.90;999.90;;;17.60;99.90;;;;;;5093016;28;20461;-72
2023/10/04 09:11:38;;;;;;;1999.90;999.90;;;17.70;99.90;;;;;;5092889;28;20463;-72
2023/10/04 09:14:05;;;;;;;1999.90;999.90;;;17.90;99.90;;;;;;5091998;28;20463;-72
2023/10/04 09:16:32;;;;;;;1999.90;999.90;;;17.80;99.90;;;;;;5105105;28;20491;-72
2023/10/04 09:19:08;;;;;;;1999.90;999.90;;;17.70;99.90;;;;;;5104648;28;20463;-72
2023/10/04 09:21:38;;;;;;;1999.90;999.90;;;17.60;99.90;;;;;;5092477;28;20799;-72
2023/10/04 09:24:07;;;;;;;1999.90;999.90;;;17.70;99.90;;;;;;5092442;28;20414;-71
2023/10/04 09:26:36;;;;;;;1999.90;999.90;;;17.60;99.90;;;;;;5100091;28;20521;-72
2023/10/04 09:29:03;;;;;;;1999.90;999.90;;;17.60;99.90;;;;;;5106432;28;20429;-72
2023/10/04 09:31:30;;;;;;;1999.90;999.90;;;17.70;99.90;;;;;;5103435;27;20420;-72
2023/10/04 09:34:13;;;;;;;1999.90;999.90;;;17.50;99.90;;;;;;5104223;28;20507;-72
2023/10/04 09:36:40;;;;;;;1999.90;999.90;;;17.60;99.90;;;;;;5092241;28;20434;-72
2023/10/04 09:39:08;;;;;;;1999.90;999.90;;;17.70;99.90;;;;;;5092105;28;20414;-72
2023/10/04 09:41:39;;;;;;;1999.90;999.90;;;17.70;99.90;;;;;;5094887;28;20426;-72
2023/10/04 09:44:20;;;;;;;1999.90;999.90;;;17.80;99.90;;;;;;5110002;28;20873;-72
2023/10/04 09:46:48;;;;;;;1999.90;999.90;;;17.90;99.90;;;;;;5103230;28;20408;-72
2023/10/04 09:49:17;;;;;;;1999.90;999.90;;;18.10;99.90;;;;;;5108026;28;20460;-72
2023/10/04 09:51:46;;;;;;;1999.90;999.90;;;18.20;99.90;;;;;;5101009;28;20458;-72
2023/10/04 09:54:14;;;;;;;1999.90;999.90;;;18.30;99.90;;;;;;5101610;28;20486;-72
2023/10/04 09:56:42;;;;;;;1999.90;999.90;;;18.10;99.90;;;;;;5094996;28;20452;-73
2023/10/04 09:59:12;;;;;;;1999.90;999.90;;;18.00;99.90;;;;;;5091941;28;20430;-73
2023/10/04 10:01:41;;;;;;;1999.90;999.90;;;18.00;99.90;;;;;;5098599;28;21034;-72
2023/10/04 10:04:15;;;;;;;1999.90;999.90;;;18.00;99.90;;;;;;5104053;28;20432;-73
2023/10/04 10:07:06;;;;;;;1999.90;999.90;;;17.70;99.90;;;;;;5097086;27;20432;-73
2023/10/04 10:09:36;;;;;;;1999.90;999.90;;;17.60;99.90;;;;;;5104171;28;20429;-73
2023/10/04 10:12:04;;;;;;;1999.90;999.90;;;17.70;99.90;;;;;;5101835;28;20858;-73
2023/10/04 10:14:33;;;;;;;1999.90;999.90;;;17.90;99.90;;;;;;5102075;28;20426;-73
2023/10/04 10:17:00;;;;;;;1999.90;999.90;;;18.00;99.90;;;;;;5106180;28;20902;-73
2023/10/04 10:19:28;;;;;;;1999.90;999.90;;;18.00;99.90;;;;;;5105773;28;20793;-73
2023/10/04 10:22:08;;;;;;;1999.90;999.90;;;18.00;99.90;;;;;;5099459;28;20426;-74
2023/10/04 10:24:42;;;;;;;1999.90;999.90;;;18.00;99.90;;;;;;5097365;28;20503;-73
2023/10/04 10:27:10;;;;;;;1999.90;999.90;;;18.00;99.90;;;;;;5105040;28;20424;-73
2023/10/04 10:29:37;;;;;;;1999.90;999.90;;;18.30;99.90;;;;;;5094475;28;20420;-73
2023/10/04 10:32:13;;;;;;;1999.90;999.90;;;18.30;99.90;;;;;;5099523;28;20421;-73
2023/10/04 10:34:39;;;;;;;1999.90;999.90;;;18.20;99.90;;;;;;5095707;28;20426;-72
2023/10/04 10:37:17;;;;;;;1999.90;999.90;;;18.00;99.90;;;;;;5104521;28;20431;-73
2023/10/04 10:39:45;;;;;;;1999.90;999.90;;;18.00;99.90;;;;;;5103501;28;20432;-72
2023/10/04 10:42:12;;;;;;;1999.90;999.90;;;17.80;99.90;;;;;;5102275;28;20433;-73
2023/10/04 10:44:40;;;;;;;1999.90;999.90;;;17.90;99.90;;;;;;5098143;28;20425;-73
2023/10/04 10:47:19;;;;;;;1999.90;999.90;;;18.20;99.90;;;;;;5097588;28;20433;-73
2023/10/04 10:49:55;;;;;;;1999.90;999.90;;;18.40;99.90;;;;;;5101501;28;20527;-73
2023/10/04 10:52:42;;;;;;;1999.90;999.90;;;18.80;99.90;;;;;;5107077;28;21105;-73
2023/10/04 10:55:16;;;;;;;1999.90;999.90;;;18.80;99.90;;;;;;5109414;28;20442;-72
2023/10/04 10:57:47;;;;;;;1999.90;999.90;;;18.90;99.90;;;;;;5103657;28;20414;-73
2023/10/04 11:00:19;;;;;;;1999.90;999.90;;;19.10;99.90;;;;;;5110314;28;20411;-73
2023/10/04 11:02:47;;;;;;;1999.90;999.90;;;19.10;99.90;;;;;;5110820;28;20424;-72
2023/10/04 11:05:16;;;;;;;1999.90;999.90;;;18.90;99.90;;;;;;5106776;28;20440;-72
2023/10/04 11:07:46;;;;;;;1999.90;999.90;;;19.00;99.90;;;;;;5101289;28;20410;-73
2023/10/04 11:10:16;;;;;;;1999.90;999.90;;;19.00;99.90;;;;;;5090504;28;20429;-73
2023/10/04 11:12:44;;;;;;;1999.90;999.90;;;19.10;99.90;;;;;;5090482;28;20406;-72
2023/10/04 11:15:11;;;;;;;1999.90;999.90;;;19.10;99.90;;;;;;5090437;28;20437;-72
2023/10/04 11:17:39;;;;;;;1999.90;999.90;;;18.90;99.90;;;;;;5092053;28;20437;-72
2023/10/04 11:20:10;;;;;;;1999.90;999.90;;;18.90;99.90;;;;;;5100270;28;21317;-73
2023/10/04 11:22:37;;;;;;;1999.90;999.90;;;18.90;99.90;;;;;;5090207;28;20425;-73
2023/10/04 11:25:07;;;;;;;1999.90;999.90;;;18.40;99.90;;;;;;5090236;28;20942;-73
2023/10/04 11:27:36;;;;;;;1999.90;999.90;;;18.50;99.90;;;;;;5090266;28;20410;-72
2023/10/04 11:30:04;;;;;;;1999.90;999.90;;;18.70;99.90;;;;;;5092617;28;20486;-73
2023/10/04 11:32:32;;;;;;;1999.90;999.90;;;18.60;99.90;;;;;;5099505;28;20417;-73
2023/10/04 11:35:07;;;;;;;1999.90;999.90;;;18.60;99.90;;;;;;5090175;28;20780;-73
2023/10/04 11:37:34;;;;;;;1999.90;999.90;;;18.40;99.90;;;;;;5090230;28;20406;-72
2023/10/04 11:40:01;;;;;;;1999.90;999.90;;;18.30;99.90;;;;;;5091508;28;20430;-74
2023/10/04 11:42:29;;;;;;;1999.90;999.90;;;18.60;99.90;;;;;;5100011;28;20504;-72
2023/10/04 11:44:55;;;;;;;1999.90;999.90;;;19.00;99.90;;;;;;5090186;28;20410;-73
2023/10/04 11:47:31;;;;;;;1999.90;999.90;;;19.10;99.90;;;;;;5090290;28;20410;-73
2023/10/04 11:49:59;;;;;;;1999.90;999.90;;;19.50;99.90;;;;;;5098467;28;20510;-73
2023/10/04 11:52:30;;;;;;;1999.90;999.90;;;19.50;99.90;;;;;;5097475;28;20445;-73
2023/10/04 11:54:57;;;;;;;1999.90;999.90;;;19.60;99.90;;;;;;5098993;28;20836;-74
2023/10/04 11:57:31;;;;;;;1999.90;999.90;;;19.60;99.90;;;;;;5100630;28;20469;-73
2023/10/04 11:59:58;;;;;;;1999.90;999.90;;;19.40;99.90;;;;;;5107403;28;20507;-72
2023/10/04 12:02:25;;;;;;;1999.90;999.90;;;19.30;99.90;;;;;;5095043;28;20424;-74
2023/10/04 12:04:53;;;;;;;1999.90;999.90;;;19.50;99.90;;;;;;5100058;28;20434;-73
2023/10/04 12:07:19;;;;;;;1999.90;999.90;;;19.50;99.90;;;;;;5096180;28;20416;-73